createdAt,value
2023-05-21T00:01:48.247Z,4.90
2023-05-21T00:04:16.243Z,4.40
2023-05-21T00:06:44.159Z,5.20
2023-05-21T00:09:13.626Z,4.70
2023-05-21T00:11:41.568Z,4.87
2023-05-21T00:14:09.880Z,4.70
2023-05-21T00:16:37.862Z,4.87
2023-05-21T00:19:06.193Z,5.40
2023-05-21T00:21:34.209Z,5.90
2023-05-21T00:24:02.162Z,5.30
2023-05-21T00:29:17.734Z,5.57
2023-05-21T00:31:45.756Z,5.87
2023-05-21T00:34:14.512Z,5.47
2023-05-21T00:36:45.370Z,5.90
2023-05-21T00:39:32.701Z,5.50
2023-05-21T00:42:03.826Z,6.07
2023-05-21T00:44:34.177Z,5.30
2023-05-21T00:47:02.437Z,5.80
2023-05-21T00:49:31.495Z,6.00
2023-05-21T00:52:01.492Z,5.97
2023-05-21T00:54:31.582Z,5.93
2023-05-21T00:57:00.156Z,6.23
2023-05-21T00:59:29.776Z,5.70
2023-05-21T01:01:57.922Z,6.20
2023-05-21T01:04:26.205Z,6.33
2023-05-21T01:06:56.229Z,5.50
2023-05-21T01:09:24.201Z,5.63
2023-05-21T01:11:52.875Z,5.40
2023-05-21T01:14:21.871Z,6.23
2023-05-21T01:19:38.548Z,5.77
2023-05-21T01:22:08.917Z,5.47
2023-05-21T01:24:39.225Z,6.20
2023-05-21T01:27:07.789Z,5.67
2023-05-21T01:29:35.863Z,5.73
2023-05-21T01:32:12.446Z,5.27
2023-05-21T01:34:46.328Z,5.57
2023-05-21T01:37:19.560Z,5.67
2023-05-21T01:40:13.653Z,5.50
2023-05-21T01:42:44.697Z,5.70
2023-05-21T01:45:13.628Z,5.60
2023-05-21T01:47:42.130Z,5.57
2023-05-21T01:50:11.465Z,5.83
2023-05-21T01:52:39.606Z,6.00
2023-05-21T01:55:09.691Z,5.80
2023-05-21T01:57:37.842Z,6.00
2023-05-21T02:00:08.474Z,6.03
2023-05-21T02:02:43.442Z,6.00
2023-05-21T02:05:12.028Z,5.67
2023-05-21T02:07:40.371Z,5.77
2023-05-21T02:10:10.638Z,5.73
2023-05-21T02:12:38.861Z,6.13
2023-05-21T02:15:08.070Z,5.83
2023-05-21T02:17:36.202Z,5.57
2023-05-21T02:20:11.494Z,6.13
2023-05-21T02:22:40.286Z,5.83
2023-05-21T02:25:11.050Z,5.97
2023-05-21T02:27:40.680Z,5.33
2023-05-21T02:30:10.612Z,5.73
2023-05-21T02:32:39.733Z,6.53
2023-05-21T02:35:08.287Z,6.50
2023-05-21T02:37:37.497Z,6.03
2023-05-21T02:40:07.324Z,6.13
2023-05-21T02:42:39.311Z,5.83
2023-05-21T02:45:09.005Z,5.70
2023-05-21T02:47:38.287Z,6.47
2023-05-21T02:50:09.824Z,5.37
2023-05-21T02:52:44.880Z,5.83
2023-05-21T02:55:12.864Z,6.20
2023-05-21T02:57:42.254Z,5.97
2023-05-21T03:00:11.477Z,5.23
2023-05-21T03:02:41.019Z,5.93
2023-05-21T03:05:10.236Z,5.30
2023-05-21T03:07:38.208Z,5.80
2023-05-21T03:10:07.491Z,5.53
2023-05-21T03:12:35.442Z,5.23
2023-05-21T03:15:05.031Z,5.20
2023-05-21T03:17:33.007Z,5.13
2023-05-21T03:20:00.937Z,5.40
2023-05-21T03:22:28.862Z,5.60
2023-05-21T03:24:58.249Z,5.90
2023-05-21T03:27:27.047Z,5.53
2023-05-21T03:29:56.018Z,5.33
2023-05-21T03:32:26.090Z,5.67
2023-05-21T03:34:55.045Z,5.50
2023-05-21T03:37:23.102Z,5.80
2023-05-21T03:39:51.028Z,5.47
2023-05-21T03:42:19.235Z,5.37
2023-05-21T03:45:09.937Z,5.57
2023-05-21T03:48:05.615Z,5.30
2023-05-21T03:50:33.829Z,5.60
2023-05-21T03:53:02.045Z,5.63
2023-05-21T03:55:30.914Z,5.33
2023-05-21T03:57:58.922Z,5.33
2023-05-21T04:00:26.895Z,5.67
2023-05-21T04:02:55.274Z,5.50
2023-05-21T04:05:24.692Z,5.57
2023-05-21T04:07:52.903Z,5.40
2023-05-21T04:10:21.972Z,5.43
2023-05-21T04:12:52.334Z,5.63
2023-05-21T04:15:20.388Z,6.00
2023-05-21T04:17:50.324Z,5.83
2023-05-21T04:20:18.560Z,5.77
2023-05-21T04:22:47.881Z,5.87
2023-05-21T04:25:15.824Z,5.43
2023-05-21T04:27:47.735Z,5.80
2023-05-21T04:30:15.721Z,5.77
2023-05-21T04:32:48.192Z,5.63
2023-05-21T04:35:16.621Z,5.73
2023-05-21T04:37:46.001Z,5.70
2023-05-21T04:40:18.449Z,6.10
2023-05-21T04:42:48.362Z,5.90
2023-05-21T04:45:17.649Z,6.00
2023-05-21T04:47:47.857Z,5.67
2023-05-21T04:50:15.849Z,6.07
2023-05-21T04:52:45.562Z,6.00
2023-05-21T04:55:13.603Z,5.90
2023-05-21T04:57:42.845Z,5.77
2023-05-21T05:00:29.260Z,6.40
2023-05-21T05:02:57.335Z,6.00
2023-05-21T05:05:25.464Z,5.93
2023-05-21T05:07:53.450Z,5.70
2023-05-21T05:10:21.608Z,6.00
2023-05-21T05:12:51.309Z,5.73
2023-05-21T05:15:19.799Z,5.80
2023-05-21T05:17:50.460Z,5.50
2023-05-21T05:20:18.646Z,5.97
2023-05-21T05:22:46.560Z,5.93
2023-05-21T05:25:14.713Z,5.47
2023-05-21T05:27:42.703Z,5.50
2023-05-21T05:30:13.023Z,5.83
2023-05-21T05:32:41.043Z,5.93
2023-05-21T05:35:10.438Z,5.63
2023-05-21T05:37:38.405Z,5.67
2023-05-21T05:40:08.771Z,6.00
2023-05-21T05:42:36.737Z,5.90
2023-05-21T05:45:13.207Z,6.20
2023-05-21T05:47:41.811Z,5.83
2023-05-21T05:50:10.219Z,6.27
2023-05-21T05:52:38.208Z,5.60
2023-05-21T05:55:09.004Z,5.83
2023-05-21T05:57:37.274Z,6.03
2023-05-21T06:00:13.627Z,6.60
2023-05-21T06:02:44.145Z,6.40
2023-05-21T06:05:12.495Z,6.40
2023-05-21T06:07:41.771Z,6.60
2023-05-21T06:10:10.731Z,6.47
2023-05-21T06:12:38.737Z,6.80
2023-05-21T06:15:08.815Z,7.10
2023-05-21T06:17:38.536Z,6.33
2023-05-21T06:20:08.969Z,6.67
2023-05-21T06:22:37.846Z,7.33
2023-05-21T06:25:10.558Z,6.77
2023-05-21T06:27:38.800Z,7.20
2023-05-21T06:30:11.928Z,6.97
2023-05-21T06:32:42.233Z,6.90
2023-05-21T06:35:10.830Z,6.83
2023-05-21T06:37:38.895Z,6.80
2023-05-21T06:40:08.494Z,7.23
2023-05-21T06:45:42.507Z,7.60
2023-05-21T06:48:24.980Z,7.17
2023-05-21T06:50:53.076Z,7.33
2023-05-21T06:53:20.991Z,7.30
2023-05-21T06:55:53.520Z,7.67
2023-05-21T06:58:36.386Z,7.33
2023-05-21T07:01:05.968Z,7.23
2023-05-21T07:03:36.786Z,8.00
2023-05-21T07:06:05.047Z,8.07
2023-05-21T07:08:32.997Z,8.00
2023-05-21T07:11:01.079Z,7.97
2023-05-21T07:13:30.780Z,8.07
2023-05-21T07:15:58.750Z,7.47
2023-05-21T07:18:28.684Z,8.23
2023-05-21T07:20:58.231Z,8.17
2023-05-21T07:23:26.535Z,7.53
2023-05-21T07:25:54.739Z,7.90
2023-05-21T07:28:23.803Z,7.73
2023-05-21T07:30:51.722Z,8.23
2023-05-21T07:33:24.307Z,7.47
2023-05-21T07:35:53.422Z,8.27
2023-05-21T07:38:22.710Z,8.80
2023-05-21T07:40:50.928Z,8.17
2023-05-21T07:43:19.117Z,8.47
2023-05-21T07:45:47.008Z,8.17
2023-05-21T07:48:15.064Z,8.30
2023-05-21T07:50:53.503Z,8.40
2023-05-21T07:53:23.013Z,8.20
2023-05-21T07:55:51.374Z,9.77
2023-05-21T07:58:24.317Z,8.97
2023-05-21T08:00:52.706Z,9.17
2023-05-21T08:03:20.976Z,8.87
2023-05-21T08:05:50.903Z,9.27
2023-05-21T08:08:20.321Z,8.07
2023-05-21T08:10:49.780Z,8.50
2023-05-21T08:13:18.545Z,8.90
2023-05-21T08:15:50.590Z,9.10
2023-05-21T08:18:24.214Z,8.80
2023-05-21T08:20:54.307Z,9.57
2023-05-21T08:23:23.097Z,10.20
2023-05-21T08:25:56.167Z,9.23
2023-05-21T08:28:24.239Z,9.97
2023-05-21T08:30:53.380Z,9.53
2023-05-21T08:33:23.398Z,9.43
2023-05-21T08:35:51.521Z,10.03
2023-05-21T08:38:23.941Z,10.53
2023-05-21T08:41:08.782Z,10.07
2023-05-21T08:43:38.875Z,9.70
2023-05-21T08:46:09.497Z,10.37
2023-05-21T08:48:39.904Z,10.30
2023-05-21T08:51:08.081Z,9.40
2023-05-21T08:53:45.727Z,9.43
2023-05-21T08:56:18.508Z,9.97
2023-05-21T08:58:50.440Z,10.17
2023-05-21T09:01:24.135Z,9.70
2023-05-21T09:04:16.319Z,11.67
2023-05-21T09:06:48.746Z,9.93
2023-05-21T09:09:27.489Z,11.97
2023-05-21T09:11:57.744Z,11.57
2023-05-21T09:14:26.531Z,9.90
2023-05-21T09:17:02.301Z,10.50
2023-05-21T09:19:32.230Z,10.43
2023-05-21T09:22:03.617Z,10.97
2023-05-21T09:24:35.777Z,10.20
2023-05-21T09:27:07.887Z,10.70
2023-05-21T09:29:36.102Z,11.17
2023-05-21T09:32:08.159Z,10.80
2023-05-21T09:34:39.465Z,10.70
2023-05-21T09:37:19.963Z,11.13
2023-05-21T09:39:55.172Z,10.77
2023-05-21T09:42:24.627Z,11.90
2023-05-21T09:44:53.070Z,10.77
2023-05-21T09:47:22.374Z,11.03
2023-05-21T09:49:50.970Z,11.67
2023-05-21T09:52:26.012Z,10.87
2023-05-21T09:54:54.346Z,10.53
2023-05-21T09:57:27.703Z,11.13
2023-05-21T09:59:55.971Z,10.37
2023-05-21T10:02:26.498Z,10.97
2023-05-21T10:04:55.249Z,11.37
2023-05-21T10:07:26.959Z,11.00
2023-05-21T10:09:56.887Z,9.50
2023-05-21T10:12:28.829Z,11.40
2023-05-21T10:15:04.021Z,10.67
2023-05-21T10:17:32.315Z,11.50
2023-05-21T10:20:01.695Z,11.57
2023-05-21T10:22:30.088Z,11.43
2023-05-21T10:25:17.546Z,10.87
2023-05-21T10:27:48.038Z,12.13
2023-05-21T10:30:16.846Z,12.17
2023-05-21T10:32:46.272Z,11.13
2023-05-21T10:35:16.784Z,11.07
2023-05-21T10:37:45.505Z,12.63
2023-05-21T10:40:14.521Z,11.60
2023-05-21T10:43:04.644Z,11.37
2023-05-21T10:45:46.386Z,10.40
2023-05-21T10:48:29.256Z,11.93
2023-05-21T10:51:14.676Z,10.73
2023-05-21T10:53:58.222Z,11.40
2023-05-21T10:56:31.652Z,11.57
2023-05-21T10:59:15.161Z,11.57
2023-05-21T11:01:43.783Z,11.70
2023-05-21T11:04:14.724Z,12.37
2023-05-21T11:06:48.409Z,11.97
2023-05-21T11:09:16.975Z,12.37
2023-05-21T11:11:48.430Z,11.63
2023-05-21T11:14:39.303Z,12.50
2023-05-21T11:17:13.971Z,13.33
2023-05-21T11:19:43.243Z,11.17
2023-05-21T11:22:22.354Z,13.90
2023-05-21T11:24:51.534Z,11.87
2023-05-21T11:27:34.277Z,11.67
2023-05-21T11:30:08.019Z,11.97
2023-05-21T11:32:39.337Z,12.60
2023-05-21T11:35:08.270Z,13.13
2023-05-21T11:37:37.837Z,12.77
2023-05-21T11:40:26.600Z,13.17
2023-05-21T11:42:55.267Z,12.83
2023-05-21T11:45:30.740Z,14.20
2023-05-21T11:47:58.790Z,13.43
2023-05-21T11:50:27.324Z,12.77
2023-05-21T11:52:55.996Z,13.40
2023-05-21T11:55:25.786Z,12.83
2023-05-21T11:57:55.353Z,12.67
2023-05-21T12:00:44.766Z,13.60
2023-05-21T12:03:15.565Z,13.17
2023-05-21T12:05:47.108Z,12.60
2023-05-21T12:08:15.100Z,13.43
2023-05-21T12:10:44.987Z,12.53
2023-05-21T12:13:15.472Z,13.67
2023-05-21T12:15:46.545Z,12.90
2023-05-21T12:18:16.587Z,12.30
2023-05-21T12:20:45.382Z,13.20
2023-05-21T12:23:20.463Z,13.83
2023-05-21T12:25:48.520Z,13.50
2023-05-21T12:28:17.012Z,14.30
2023-05-21T12:30:46.383Z,14.07
2023-05-21T12:33:14.312Z,13.97
2023-05-21T12:35:42.268Z,13.67
2023-05-21T12:38:10.646Z,13.33
2023-05-21T12:40:40.523Z,13.70
2023-05-21T12:43:09.020Z,13.10
2023-05-21T12:45:39.161Z,12.63
2023-05-21T12:48:08.866Z,13.73
2023-05-21T12:50:40.438Z,12.70
2023-05-21T12:53:10.548Z,13.97
2023-05-21T12:55:38.645Z,13.30
2023-05-21T12:58:08.781Z,13.43
2023-05-21T13:00:38.072Z,13.57
2023-05-21T13:03:07.882Z,14.37
2023-05-21T13:05:36.137Z,12.87
2023-05-21T13:08:04.189Z,14.27
2023-05-21T13:10:32.183Z,14.10
2023-05-21T13:13:00.253Z,13.30
2023-05-21T13:15:28.324Z,13.13
2023-05-21T13:17:57.210Z,13.03
2023-05-21T13:20:27.854Z,13.43
2023-05-21T13:22:56.203Z,14.40
2023-05-21T13:25:44.525Z,13.93
2023-05-21T13:28:15.075Z,12.50
2023-05-21T13:30:43.134Z,14.27
2023-05-21T13:33:11.634Z,13.83
2023-05-21T13:35:41.274Z,13.47
2023-05-21T13:38:09.185Z,14.13
2023-05-21T13:40:39.008Z,13.73
2023-05-21T13:43:07.221Z,13.37
2023-05-21T13:45:35.108Z,13.27
2023-05-21T13:48:03.139Z,12.77
2023-05-21T13:50:31.077Z,13.20
2023-05-21T13:53:00.428Z,13.33
2023-05-21T13:55:28.373Z,14.37
2023-05-21T13:57:56.334Z,13.60
2023-05-21T14:00:24.316Z,14.53
2023-05-21T14:02:52.366Z,13.87
2023-05-21T14:05:20.506Z,13.90
2023-05-21T14:07:48.445Z,12.90
2023-05-21T14:10:17.987Z,13.77
2023-05-21T14:12:47.167Z,13.00
2023-05-21T14:15:16.046Z,12.37
2023-05-21T14:17:43.989Z,13.23
2023-05-21T14:20:12.764Z,13.03
2023-05-21T14:22:40.784Z,13.30
2023-05-21T14:25:09.128Z,13.57
2023-05-21T14:27:38.760Z,12.43
2023-05-21T14:30:07.689Z,13.40
2023-05-21T14:32:35.657Z,12.80
2023-05-21T14:35:04.236Z,13.20
2023-05-21T14:37:32.138Z,12.63
2023-05-21T14:40:00.151Z,12.57
2023-05-21T14:42:28.138Z,13.70
2023-05-21T14:47:26.644Z,12.47
2023-05-21T14:49:54.581Z,12.13
2023-05-21T14:52:22.489Z,12.37
2023-05-21T14:54:50.419Z,11.87
2023-05-21T14:57:18.337Z,11.97
2023-05-21T14:59:46.328Z,11.57
2023-05-21T15:02:15.790Z,11.53
2023-05-21T15:04:43.776Z,13.27
2023-05-21T15:07:11.728Z,12.90
2023-05-21T15:09:39.633Z,12.23
2023-05-21T15:12:07.749Z,12.13
2023-05-21T15:14:35.685Z,12.33
2023-05-21T15:17:03.644Z,12.20
2023-05-21T15:19:33.196Z,10.80
2023-05-21T15:22:01.200Z,11.57
2023-05-21T15:24:29.145Z,12.33
2023-05-21T15:26:57.008Z,12.13
2023-05-21T15:29:24.997Z,13.00
2023-05-21T15:31:52.938Z,13.20
2023-05-21T15:34:20.938Z,12.00
2023-05-21T15:36:50.202Z,11.07
2023-05-21T15:39:18.176Z,11.13
2023-05-21T15:41:46.133Z,12.03
2023-05-21T15:44:14.040Z,11.70
2023-05-21T15:46:42.034Z,10.87
2023-05-21T15:52:00.678Z,11.73
2023-05-21T15:54:28.669Z,11.40
2023-05-21T15:56:56.660Z,10.93
2023-05-21T15:59:25.622Z,11.80
2023-05-21T16:01:53.561Z,11.43
2023-05-21T16:04:21.503Z,11.83
2023-05-21T16:06:49.516Z,11.80
2023-05-21T16:09:18.781Z,11.60
2023-05-21T16:11:48.816Z,12.43
2023-05-21T16:14:16.728Z,12.60
2023-05-21T16:16:44.646Z,10.90
2023-05-21T16:19:12.674Z,12.70
2023-05-21T16:21:40.683Z,12.17
2023-05-21T16:24:08.631Z,12.70
2023-05-21T16:26:37.869Z,11.80
2023-05-21T16:29:05.842Z,11.33
2023-05-21T16:31:34.553Z,11.27
2023-05-21T16:34:02.481Z,11.57
2023-05-21T16:36:31.041Z,11.43
2023-05-21T16:38:59.012Z,11.20
2023-05-21T16:41:27.120Z,12.53
2023-05-21T16:43:56.355Z,11.70
2023-05-21T16:46:24.334Z,11.83
2023-05-21T16:48:52.295Z,12.60
2023-05-21T16:51:20.216Z,11.00
2023-05-21T16:53:48.165Z,12.43
2023-05-21T16:56:16.188Z,12.67
2023-05-21T16:58:44.088Z,12.43
2023-05-21T17:01:13.462Z,11.90
2023-05-21T17:03:43.209Z,11.70
2023-05-21T17:06:31.504Z,11.13
2023-05-21T17:08:59.396Z,11.47
2023-05-21T17:11:27.309Z,11.67
2023-05-21T17:13:55.177Z,11.73
2023-05-21T17:16:24.956Z,11.13
2023-05-21T17:18:53.232Z,11.60
2023-05-21T17:21:21.295Z,11.77
2023-05-21T17:23:49.198Z,11.83
2023-05-21T17:26:17.143Z,11.93
2023-05-21T17:28:45.099Z,11.63
2023-05-21T17:31:13.115Z,12.60
2023-05-21T17:33:42.407Z,12.40
2023-05-21T17:36:10.628Z,11.07
2023-05-21T17:38:38.551Z,10.90
2023-05-21T17:41:06.698Z,11.60
2023-05-21T17:43:34.615Z,11.97
2023-05-21T17:46:02.509Z,11.50
2023-05-21T17:48:30.384Z,12.33
2023-05-21T17:50:59.960Z,11.13
2023-05-21T17:53:27.914Z,11.30
2023-05-21T17:55:55.885Z,12.73
2023-05-21T17:58:23.832Z,11.27
2023-05-21T18:00:51.855Z,11.93
2023-05-21T18:03:19.824Z,11.53
2023-05-21T18:05:47.772Z,11.37
2023-05-21T18:08:17.332Z,11.50
2023-05-21T18:10:47.856Z,10.97
2023-05-21T18:13:16.004Z,11.37
2023-05-21T18:15:43.935Z,10.77
2023-05-21T18:18:19.858Z,11.70
2023-05-21T18:20:48.786Z,10.73
2023-05-21T18:23:18.363Z,11.60
2023-05-21T18:25:46.286Z,11.07
2023-05-21T18:28:14.165Z,11.20
2023-05-21T18:30:42.120Z,11.77
2023-05-21T18:33:11.178Z,11.50
2023-05-21T18:35:39.173Z,11.17
2023-05-21T18:38:09.775Z,11.87
2023-05-21T18:40:39.433Z,10.60
2023-05-21T18:43:07.399Z,11.27
2023-05-21T18:45:35.827Z,12.50
2023-05-21T18:48:03.979Z,11.10
2023-05-21T18:50:32.618Z,11.77
2023-05-21T18:55:48.315Z,12.50
2023-05-21T18:58:16.572Z,11.23
2023-05-21T19:00:44.641Z,12.07
2023-05-21T19:03:12.622Z,12.03
2023-05-21T19:05:40.749Z,11.87
2023-05-21T19:08:08.665Z,11.33
2023-05-21T19:10:39.111Z,12.43
2023-05-21T19:13:08.614Z,11.80
2023-05-21T19:15:36.594Z,11.97
2023-05-21T19:18:04.778Z,11.37
2023-05-21T19:20:32.780Z,11.57
2023-05-21T19:23:01.336Z,11.53
2023-05-21T19:25:31.359Z,11.20
2023-05-21T19:28:00.679Z,12.33
2023-05-21T19:30:29.981Z,11.70
2023-05-21T19:32:57.900Z,12.20
2023-05-21T19:35:25.870Z,12.57
2023-05-21T19:37:54.631Z,12.30
2023-05-21T19:40:23.182Z,12.47
2023-05-21T19:42:51.139Z,12.40
2023-05-21T19:45:21.291Z,10.93
2023-05-21T19:47:51.172Z,9.90
2023-05-21T19:50:19.352Z,9.90
2023-05-21T19:52:47.264Z,9.07
2023-05-21T19:55:33.901Z,9.37
2023-05-21T19:58:01.937Z,8.77
2023-05-21T20:00:30.278Z,8.93
2023-05-21T20:03:02.037Z,8.47
2023-05-21T20:05:29.946Z,8.90
2023-05-21T20:07:59.060Z,8.57
2023-05-21T20:10:28.130Z,8.73
2023-05-21T20:12:56.180Z,8.40
2023-05-21T20:15:24.187Z,8.50
2023-05-21T20:17:52.206Z,8.23
2023-05-21T20:20:22.925Z,8.80
2023-05-21T20:22:50.947Z,9.00
2023-05-21T20:25:19.009Z,9.00
2023-05-21T20:27:46.973Z,8.47
2023-05-21T20:30:15.147Z,8.73
2023-05-21T20:32:43.129Z,8.87
2023-05-21T20:35:32.224Z,7.90
2023-05-21T20:38:02.050Z,8.33
2023-05-21T20:40:30.014Z,7.60
2023-05-21T20:42:58.493Z,8.03
2023-05-21T20:45:29.586Z,6.90
2023-05-21T20:47:57.747Z,7.73
2023-05-21T20:50:26.010Z,7.07
2023-05-21T20:52:55.390Z,7.10
2023-05-21T20:55:23.317Z,7.00
2023-05-21T20:57:51.292Z,6.93
2023-05-21T21:00:19.714Z,7.23
2023-05-21T21:02:47.631Z,7.33
2023-05-21T21:05:16.341Z,7.53
2023-05-21T21:07:45.569Z,7.37
2023-05-21T21:10:14.862Z,7.80
2023-05-21T21:12:42.759Z,7.53
2023-05-21T21:15:29.540Z,7.90
2023-05-21T21:17:57.521Z,7.80
2023-05-21T21:20:49.554Z,7.87
2023-05-21T21:23:17.787Z,8.13
2023-05-21T21:25:47.424Z,8.13
2023-05-21T21:28:15.360Z,8.33
2023-05-21T21:30:43.232Z,7.87
2023-05-21T21:33:11.948Z,8.20
2023-05-21T21:35:40.326Z,8.67
2023-05-21T21:38:08.271Z,8.90
2023-05-21T21:40:36.454Z,8.70
2023-05-21T21:43:05.902Z,9.97
2023-05-21T21:45:33.931Z,9.30
2023-05-21T21:48:01.921Z,9.90
2023-05-21T21:50:29.844Z,10.30
2023-05-21T21:52:57.894Z,9.83
2023-05-21T21:55:25.934Z,9.43
2023-05-21T21:57:53.961Z,10.20
2023-05-21T22:00:26.621Z,10.63
2023-05-21T22:02:54.967Z,11.17
2023-05-21T22:05:23.064Z,10.33
2023-05-21T22:07:52.647Z,10.43
2023-05-21T22:10:21.243Z,11.10
2023-05-21T22:12:49.200Z,11.00
2023-05-21T22:15:23.883Z,12.00
2023-05-21T22:17:53.335Z,11.57
2023-05-21T22:20:22.022Z,11.57
2023-05-21T22:22:50.339Z,11.57
2023-05-21T22:25:18.442Z,10.87
2023-05-21T22:27:46.373Z,11.87
2023-05-21T22:30:14.527Z,12.70
2023-05-21T22:32:42.615Z,12.33
2023-05-21T22:35:12.462Z,12.27
2023-05-21T22:37:40.503Z,12.80
2023-05-21T22:40:10.328Z,12.10
2023-05-21T22:42:39.076Z,12.87
2023-05-21T22:45:08.515Z,12.80
2023-05-21T22:47:39.389Z,13.00
2023-05-21T22:50:08.087Z,13.37
2023-05-21T22:52:38.085Z,13.20
2023-05-21T22:55:06.525Z,13.37
2023-05-21T22:57:34.613Z,12.67
2023-05-21T23:00:02.480Z,13.23
2023-05-21T23:02:30.537Z,12.80
2023-05-21T23:04:58.581Z,13.90
2023-05-21T23:07:26.682Z,13.63
2023-05-21T23:09:55.997Z,13.73
2023-05-21T23:12:23.983Z,13.90
2023-05-21T23:14:51.936Z,14.60
2023-05-21T23:17:19.856Z,12.90
2023-05-21T23:19:49.902Z,14.40
2023-05-21T23:22:17.844Z,15.43
2023-05-21T23:24:45.899Z,14.60
2023-05-21T23:27:16.729Z,14.93
2023-05-21T23:30:05.144Z,15.00
2023-05-21T23:32:33.197Z,14.57
2023-05-21T23:35:01.611Z,14.67
2023-05-21T23:40:16.095Z,15.03
2023-05-21T23:42:45.582Z,16.17
2023-05-21T23:45:13.517Z,15.87
2023-05-21T23:47:59.813Z,16.50
2023-05-21T23:50:27.752Z,16.20
2023-05-21T23:52:55.736Z,16.47
2023-05-21T23:55:23.643Z,16.80
2023-05-21T23:57:52.918Z,16.77
